Time;durP1;ratioP1;P1;durP2;ratioP2;P2;SDS_P1;SDS_P2;PMS_P1;PMS_P2;Temp;Humidity;BMP_temperature;BMP_pressure;BME280_temperature;BME280_humidity;BME280_pressure;Samples;Min_cycle;Max_cycle;Signal;HPM_P1;HPM_P2
2023/01/01 00:00:15;;;;;;;86.93;55.63;;;10.80;96.90;;;;;;5035080;28;20198;-65
2023/01/01 00:02:42;;;;;;;85.30;55.93;;;10.80;96.90;;;;;;5035944;28;20288;-65
2023/01/01 00:05:09;;;;;;;88.77;55.93;;;10.80;96.90;;;;;;5036563;28;20210;-65
2023/01/01 00:07:36;;;;;;;93.27;56.90;;;10.70;96.90;;;;;;5034862;28;20218;-65
2023/01/01 00:12:49;;;;;;;91.30;56.43;;;10.70;96.90;;;;;;5034011;28;20264;-65
2023/01/01 00:15:16;;;;;;;89.80;57.37;;;10.70;96.90;;;;;;5039420;28;20533;-65
2023/01/01 00:17:43;;;;;;;87.70;55.60;;;10.70;96.80;;;;;;5034834;28;20681;-65
2023/01/01 00:20:11;;;;;;;85.53;54.40;;;10.60;96.80;;;;;;5036792;28;20210;-65
2023/01/01 00:22:38;;;;;;;83.97;53.40;;;10.60;96.80;;;;;;5035579;28;20211;-65
2023/01/01 00:25:23;;;;;;;84.53;56.20;;;10.60;96.80;;;;;;5036439;28;20540;-65
2023/01/01 00:27:50;;;;;;;88.07;55.97;;;10.50;96.80;;;;;;5035244;28;20220;-65
2023/01/01 00:30:18;;;;;;;82.33;53.53;;;10.50;96.80;;;;;;5043294;28;20202;-65
2023/01/01 00:32:45;;;;;;;87.70;54.73;;;10.50;96.80;;;;;;5035235;28;20581;-65
2023/01/01 00:35:25;;;;;;;88.30;57.67;;;10.40;96.80;;;;;;5035717;28;20217;-65
2023/01/01 00:37:54;;;;;;;89.30;59.17;;;10.40;96.80;;;;;;5035774;28;20209;-65
2023/01/01 00:40:21;;;;;;;81.53;53.50;;;10.40;96.80;;;;;;5036790;28;20237;-65
2023/01/01 00:42:49;;;;;;;88.33;56.40;;;10.30;96.70;;;;;;5035032;28;20236;-65
2023/01/01 00:45:16;;;;;;;104.10;61.00;;;10.30;96.70;;;;;;5040171;28;20213;-65
2023/01/01 00:47:50;;;;;;;101.17;64.27;;;10.30;96.80;;;;;;5038890;28;20220;-65
2023/01/01 00:50:18;;;;;;;108.00;68.30;;;10.20;96.70;;;;;;5033115;28;20199;-65
2023/01/01 00:52:45;;;;;;;119.60;74.27;;;10.20;96.70;;;;;;5035355;28;20275;-65
2023/01/01 00:55:12;;;;;;;130.13;77.93;;;10.20;96.70;;;;;;5035449;28;20203;-65
2023/01/01 00:57:40;;;;;;;127.60;80.70;;;10.10;96.80;;;;;;5037059;28;20270;-65
2023/01/01 01:00:08;;;;;;;135.60;79.93;;;10.10;96.80;;;;;;5036800;28;20208;-65
2023/01/01 01:02:35;;;;;;;131.00;83.87;;;10.10;96.80;;;;;;5036880;28;20583;-65
2023/01/01 01:05:03;;;;;;;128.37;84.77;;;10.10;96.90;;;;;;5034710;28;20292;-65
2023/01/01 01:07:37;;;;;;;144.70;89.23;;;10.10;96.90;;;;;;5033888;28;20711;-65
2023/01/01 01:10:05;;;;;;;140.37;91.67;;;10.10;96.90;;;;;;5034020;28;20217;-65
2023/01/01 01:12:34;;;;;;;143.20;93.40;;;10.10;97.00;;;;;;5037684;28;20209;-65
2023/01/01 01:15:01;;;;;;;145.40;89.57;;;10.10;97.00;;;;;;5033099;28;20319;-65
2023/01/01 01:17:28;;;;;;;148.97;92.20;;;10.10;97.00;;;;;;5033788;28;20231;-65
2023/01/01 01:19:55;;;;;;;151.93;92.70;;;10.10;96.90;;;;;;5035028;28;20205;-65
2023/01/01 01:22:22;;;;;;;134.03;89.73;;;10.10;97.00;;;;;;5035195;28;20214;-65
2023/01/01 01:24:56;;;;;;;138.40;90.20;;;10.20;97.00;;;;;;5037204;28;20253;-65
2023/01/01 01:27:23;;;;;;;142.50;90.77;;;10.20;97.00;;;;;;5034106;28;20217;-65
2023/01/01 01:29:50;;;;;;;145.37;93.23;;;10.20;97.10;;;;;;5042659;28;20216;-65
2023/01/01 01:32:18;;;;;;;144.23;91.40;;;10.20;97.10;;;;;;5031111;28;20586;-65
2023/01/01 01:34:46;;;;;;;142.97;91.33;;;10.20;97.20;;;;;;5038757;28;20194;-65
2023/01/01 01:37:13;;;;;;;127.70;84.37;;;10.30;97.20;;;;;;5034449;28;20213;-65
2023/01/01 01:39:40;;;;;;;140.13;81.20;;;10.30;97.20;;;;;;5034833;28;20217;-65
2023/01/01 01:42:07;;;;;;;125.40;80.40;;;10.30;97.20;;;;;;5036071;28;20548;-65
2023/01/01 01:44:46;;;;;;;119.03;74.97;;;10.30;97.20;;;;;;5033276;28;20629;-65
2023/01/01 01:47:49;;;;;;;114.20;72.73;;;10.40;97.20;;;;;;5035678;28;20216;-65
2023/01/01 01:50:19;;;;;;;109.90;71.20;;;10.40;97.20;;;;;;5035092;28;20198;-66
2023/01/01 01:52:58;;;;;;;114.30;71.10;;;10.40;97.10;;;;;;5031119;28;20611;-65
2023/01/01 01:55:29;;;;;;;109.77;69.40;;;10.40;97.20;;;;;;5034954;28;20562;-65
2023/01/01 01:57:57;;;;;;;116.33;71.30;;;10.40;97.10;;;;;;5035921;28;20238;-65
2023/01/01 02:00:24;;;;;;;114.03;71.03;;;10.40;97.10;;;;;;5036108;28;20942;-65
2023/01/01 02:02:54;;;;;;;115.07;71.17;;;10.40;97.10;;;;;;5033455;28;20211;-65
2023/01/01 02:05:28;;;;;;;111.30;71.13;;;10.40;97.10;;;;;;5036536;28;20209;-65
2023/01/01 02:07:57;;;;;;;120.30;72.00;;;10.40;97.00;;;;;;5036112;28;20306;-65
2023/01/01 02:10:26;;;;;;;113.47;72.73;;;10.40;97.00;;;;;;5032720;28;20202;-65
2023/01/01 02:12:53;;;;;;;121.17;75.77;;;10.40;97.00;;;;;;5035375;28;20296;-65
2023/01/01 02:15:24;;;;;;;129.00;79.73;;;10.40;97.00;;;;;;5035146;28;20321;-65
2023/01/01 02:17:58;;;;;;;130.40;78.43;;;10.40;97.00;;;;;;5034890;28;20222;-65
2023/01/01 02:20:38;;;;;;;136.27;80.70;;;10.40;97.00;;;;;;5032575;28;20212;-65
2023/01/01 02:23:45;;;;;;;134.97;84.67;;;10.40;97.00;;;;;;5029589;28;20265;-65
2023/01/01 02:26:37;;;;;;;135.17;82.43;;;10.40;97.00;;;;;;5034507;28;20209;-65
2023/01/01 02:29:10;;;;;;;129.70;81.90;;;10.40;96.90;;;;;;5039377;28;20239;-65
2023/01/01 02:31:44;;;;;;;134.80;82.87;;;10.40;96.90;;;;;;5039372;28;20206;-64
2023/01/01 02:34:16;;;;;;;136.30;84.37;;;10.40;96.90;;;;;;5044719;28;20591;-65
2023/01/01 02:36:49;;;;;;;128.73;81.13;;;10.50;96.80;;;;;;5038060;28;20204;-65
2023/01/01 02:39:20;;;;;;;134.47;82.40;;;10.50;96.80;;;;;;5040478;28;20210;-65
2023/01/01 02:41:51;;;;;;;130.70;82.90;;;10.40;96.70;;;;;;5042833;28;20209;-65
2023/01/01 02:44:21;;;;;;;133.40;84.33;;;10.40;96.70;;;;;;5041488;28;20258;-65
2023/01/01 02:46:48;;;;;;;138.50;84.67;;;10.40;96.70;;;;;;5045041;28;20208;-65
2023/01/01 02:49:15;;;;;;;133.30;84.43;;;10.40;96.70;;;;;;5043998;28;20210;-65
2023/01/01 02:51:50;;;;;;;131.93;84.63;;;10.40;96.70;;;;;;5040024;28;20202;-65
2023/01/01 02:54:17;;;;;;;136.30;86.73;;;10.40;96.70;;;;;;5037572;28;20210;-65
2023/01/01 02:56:54;;;;;;;147.27;88.73;;;10.40;96.70;;;;;;5043096;28;20204;-65
2023/01/01 03:00:27;;;;;;;136.03;87.90;;;10.40;96.60;;;;;;5040720;28;20300;-65
2023/01/01 03:02:54;;;;;;;132.93;84.50;;;10.40;96.60;;;;;;5034675;28;20212;-65
2023/01/01 03:05:34;;;;;;;143.93;86.20;;;10.30;96.60;;;;;;5032503;28;20200;-65
2023/01/01 03:08:05;;;;;;;144.07;86.87;;;10.30;96.50;;;;;;5039217;28;20210;-65
2023/01/01 03:10:39;;;;;;;137.40;85.30;;;10.30;96.60;;;;;;5024681;28;20290;-65
2023/01/01 03:13:49;;;;;;;142.60;87.63;;;10.30;96.50;;;;;;5037631;28;20525;-65
2023/01/01 03:16:28;;;;;;;136.93;82.77;;;10.30;96.50;;;;;;5032964;28;20531;-65
2023/01/01 03:19:16;;;;;;;133.83;83.37;;;10.30;96.50;;;;;;5039271;28;20201;-65
2023/01/01 03:21:54;;;;;;;129.60;80.97;;;10.20;96.50;;;;;;5036197;28;20213;-65
2023/01/01 03:24:28;;;;;;;139.00;82.10;;;10.20;96.40;;;;;;5033644;28;20660;-65
2023/01/01 03:27:03;;;;;;;127.20;80.17;;;10.20;96.40;;;;;;5045645;28;20204;-65
2023/01/01 03:29:34;;;;;;;124.03;80.73;;;10.10;96.40;;;;;;5041827;28;20230;-65
2023/01/01 03:32:04;;;;;;;133.30;79.23;;;10.10;96.40;;;;;;5041264;28;20195;-65
2023/01/01 03:34:39;;;;;;;118.70;77.77;;;10.10;96.40;;;;;;5037688;28;20189;-65
2023/01/01 03:37:13;;;;;;;135.23;84.60;;;10.00;96.40;;;;;;5039907;28;20205;-65
2023/01/01 03:39:51;;;;;;;122.77;78.63;;;10.00;96.40;;;;;;5036887;28;20202;-65
2023/01/01 03:42:18;;;;;;;136.20;81.80;;;9.90;96.40;;;;;;5032786;28;20623;-65
2023/01/01 03:44:51;;;;;;;139.77;81.00;;;9.90;96.40;;;;;;5036581;28;20534;-65
2023/01/01 03:47:19;;;;;;;135.63;81.67;;;9.90;96.40;;;;;;5035440;28;20226;-65
2023/01/01 03:49:46;;;;;;;130.07;83.80;;;9.90;96.50;;;;;;5039776;28;20217;-65
2023/01/01 03:52:35;;;;;;;133.17;83.33;;;9.90;96.50;;;;;;5031939;28;20538;-65
2023/01/01 03:55:13;;;;;;;131.27;80.33;;;9.80;96.50;;;;;;5033059;28;20236;-65
2023/01/01 03:58:01;;;;;;;139.20;84.97;;;9.80;96.50;;;;;;5038458;28;20518;-65
2023/01/01 04:00:39;;;;;;;125.43;82.03;;;9.70;96.50;;;;;;5037110;28;20202;-65
2023/01/01 04:03:18;;;;;;;130.37;81.30;;;9.70;96.50;;;;;;5034769;28;20208;-65
2023/01/01 04:05:46;;;;;;;136.93;83.10;;;9.70;96.50;;;;;;5033625;28;20195;-65
2023/01/01 04:08:14;;;;;;;126.37;83.87;;;9.70;96.60;;;;;;5036315;28;20559;-65
2023/01/01 04:10:46;;;;;;;130.70;83.13;;;9.60;96.60;;;;;;5037347;28;20205;-65
2023/01/01 04:13:13;;;;;;;129.53;77.40;;;9.60;96.60;;;;;;5033966;28;20201;-65
2023/01/01 04:15:41;;;;;;;133.73;82.90;;;9.60;96.60;;;;;;5040892;28;20205;-65
2023/01/01 04:18:08;;;;;;;130.77;82.53;;;9.60;96.60;;;;;;5037479;28;20208;-65
2023/01/01 04:20:35;;;;;;;137.63;85.30;;;9.50;96.60;;;;;;5035902;28;20210;-65
2023/01/01 04:23:03;;;;;;;132.10;81.27;;;9.50;96.60;;;;;;5037178;28;20279;-65
2023/01/01 04:25:30;;;;;;;130.60;82.87;;;9.40;96.60;;;;;;5035836;28;20205;-65
2023/01/01 04:27:58;;;;;;;139.93;84.83;;;9.40;96.60;;;;;;5039856;28;20203;-65
2023/01/01 04:30:25;;;;;;;120.93;80.23;;;9.40;96.60;;;;;;5037979;28;20226;-65
2023/01/01 04:32:54;;;;;;;131.60;82.90;;;9.40;96.60;;;;;;5034441;28;20213;-65
2023/01/01 04:35:21;;;;;;;132.23;80.80;;;9.30;96.60;;;;;;5036140;28;20528;-65
2023/01/01 04:37:48;;;;;;;133.20;85.10;;;9.30;96.60;;;;;;5036262;28;20196;-65
2023/01/01 04:40:15;;;;;;;130.47;79.83;;;9.20;96.60;;;;;;5036226;28;20200;-65
2023/01/01 04:42:43;;;;;;;129.27;81.17;;;9.20;96.70;;;;;;5033842;28;20209;-65
2023/01/01 04:45:13;;;;;;;116.93;74.97;;;9.20;96.70;;;;;;5041369;28;20230;-65
2023/01/01 04:47:42;;;;;;;131.97;79.87;;;9.10;96.80;;;;;;5032722;28;20207;-65
2023/01/01 04:50:09;;;;;;;130.23;80.47;;;9.10;96.80;;;;;;5032759;28;20623;-65
2023/01/01 04:52:36;;;;;;;138.73;83.57;;;9.00;96.80;;;;;;5034970;28;20264;-65
2023/01/01 04:55:04;;;;;;;126.17;80.33;;;9.00;96.80;;;;;;5035100;28;20229;-65
2023/01/01 04:57:31;;;;;;;130.33;80.07;;;9.00;96.80;;;;;;5031827;28;20206;-65
2023/01/01 04:59:58;;;;;;;132.93;80.60;;;8.90;96.80;;;;;;5038905;28;20238;-65
2023/01/01 05:02:25;;;;;;;133.70;81.43;;;8.90;96.90;;;;;;5032711;28;20208;-65
2023/01/01 05:04:53;;;;;;;125.80;78.93;;;8.90;96.90;;;;;;5034379;28;20199;-65
2023/01/01 05:07:20;;;;;;;140.47;81.57;;;8.90;97.00;;;;;;5031753;28;20261;-65
2023/01/01 05:09:47;;;;;;;136.33;82.13;;;8.90;97.00;;;;;;5033977;28;20314;-65
2023/01/01 05:12:14;;;;;;;141.80;81.23;;;8.90;97.00;;;;;;5036366;28;20203;-65
2023/01/01 05:14:41;;;;;;;128.40;78.17;;;8.80;97.00;;;;;;5034784;28;20239;-65
2023/01/01 05:17:08;;;;;;;125.93;78.83;;;8.80;97.10;;;;;;5037501;28;20525;-65
2023/01/01 05:19:35;;;;;;;128.83;79.57;;;8.80;97.10;;;;;;5034067;28;20215;-65
2023/01/01 05:22:02;;;;;;;135.00;80.70;;;8.80;97.10;;;;;;5034981;28;20208;-65
2023/01/01 05:24:36;;;;;;;123.47;76.37;;;8.80;97.10;;;;;;5035178;28;20253;-65
2023/01/01 05:27:03;;;;;;;113.60;71.70;;;8.80;97.20;;;;;;5032607;28;20203;-65
2023/01/01 05:29:30;;;;;;;123.40;76.93;;;8.80;97.10;;;;;;5035297;28;20279;-65
2023/01/01 05:31:57;;;;;;;131.23;76.90;;;8.80;97.10;;;;;;5035987;28;20257;-65
2023/01/01 05:34:26;;;;;;;111.50;74.70;;;8.80;97.10;;;;;;5035930;28;20212;-65
2023/01/01 05:36:53;;;;;;;123.67;74.97;;;8.70;97.10;;;;;;5035588;28;20199;-65
2023/01/01 05:39:20;;;;;;;123.87;76.27;;;8.70;97.10;;;;;;5034898;28;20201;-65
2023/01/01 05:41:47;;;;;;;124.97;75.73;;;8.70;97.20;;;;;;5035736;28;20196;-66
2023/01/01 05:44:16;;;;;;;122.10;74.17;;;8.80;97.20;;;;;;5032618;28;20207;-65
2023/01/01 05:46:43;;;;;;;124.20;73.23;;;8.80;97.50;;;;;;5033821;28;20207;-65
2023/01/01 05:49:11;;;;;;;118.53;73.53;;;8.80;97.30;;;;;;5035278;28;20277;-65
2023/01/01 05:51:38;;;;;;;118.37;74.63;;;8.80;97.30;;;;;;5030351;28;20261;-65
2023/01/01 05:54:05;;;;;;;118.60;70.80;;;8.80;97.30;;;;;;5035759;28;20198;-65
2023/01/01 05:56:32;;;;;;;121.63;74.03;;;8.80;97.30;;;;;;5036896;28;20261;-65
2023/01/01 05:59:00;;;;;;;114.13;69.50;;;8.80;97.20;;;;;;5034196;28;20199;-65
2023/01/01 06:01:29;;;;;;;116.03;70.87;;;8.80;97.20;;;;;;5035760;28;20207;-65
2023/01/01 06:03:57;;;;;;;116.63;69.10;;;8.80;97.20;;;;;;5033960;28;20211;-65
2023/01/01 06:06:30;;;;;;;117.53;70.53;;;8.80;97.20;;;;;;5032870;28;20204;-65
2023/01/01 06:08:59;;;;;;;111.23;68.37;;;8.80;97.20;;;;;;5034007;28;20311;-65
2023/01/01 06:11:28;;;;;;;103.87;67.17;;;8.80;97.20;;;;;;5034493;28;20199;-65
2023/01/01 06:13:57;;;;;;;106.23;65.87;;;8.80;97.20;;;;;;5034892;28;20301;-65
2023/01/01 06:16:25;;;;;;;109.07;68.27;;;8.80;97.10;;;;;;5036132;28;20231;-65
2023/01/01 06:18:53;;;;;;;105.57;69.13;;;8.80;97.20;;;;;;5031904;28;20215;-65
2023/01/01 06:21:23;;;;;;;107.93;66.20;;;8.80;97.20;;;;;;5034264;28;20203;-65
2023/01/01 06:23:50;;;;;;;109.53;63.53;;;8.80;97.30;;;;;;5034356;28;20234;-65
2023/01/01 06:26:20;;;;;;;109.23;67.10;;;8.80;97.30;;;;;;5036688;28;20214;-65
2023/01/01 06:28:48;;;;;;;108.87;67.03;;;8.80;97.30;;;;;;5037449;28;20507;-65
2023/01/01 06:31:17;;;;;;;98.57;63.20;;;8.80;97.30;;;;;;5032944;28;20205;-65
2023/01/01 06:33:45;;;;;;;99.20;61.83;;;8.80;97.30;;;;;;5035321;28;20243;-65
2023/01/01 06:36:15;;;;;;;101.83;62.60;;;8.90;97.30;;;;;;5032051;28;20568;-65
2023/01/01 06:38:45;;;;;;;96.03;60.70;;;8.80;97.20;;;;;;5035833;28;20610;-65
2023/01/01 06:41:15;;;;;;;102.27;61.40;;;8.80;97.20;;;;;;5033793;28;20283;-65
2023/01/01 06:43:42;;;;;;;99.80;60.67;;;8.80;97.20;;;;;;5037841;28;20604;-65
2023/01/01 06:46:27;;;;;;;98.33;59.00;;;8.80;97.20;;;;;;5036598;28;20524;-65
2023/01/01 06:48:58;;;;;;;98.40;60.77;;;8.80;97.40;;;;;;5031015;28;20278;-65
2023/01/01 06:51:28;;;;;;;102.53;61.27;;;8.80;97.20;;;;;;5030847;28;20287;-65
2023/01/01 06:53:58;;;;;;;98.63;60.10;;;8.80;97.20;;;;;;5033945;28;20202;-65
2023/01/01 06:56:26;;;;;;;95.67;58.13;;;8.80;97.20;;;;;;5023181;28;20699;-65
2023/01/01 06:58:53;;;;;;;92.40;58.60;;;8.70;97.10;;;;;;5038376;28;20495;-65
2023/01/01 07:01:22;;;;;;;92.90;56.60;;;8.70;97.10;;;;;;5033014;28;20243;-65
2023/01/01 07:03:51;;;;;;;92.30;57.90;;;8.70;97.20;;;;;;5033637;28;20205;-65
2023/01/01 07:06:18;;;;;;;93.13;57.43;;;8.70;97.10;;;;;;5032025;28;20635;-65
2023/01/01 07:08:45;;;;;;;92.53;58.57;;;8.70;97.10;;;;;;5031236;28;20195;-65
2023/01/01 07:11:12;;;;;;;93.83;56.63;;;8.70;97.10;;;;;;5033295;28;20212;-65
2023/01/01 07:13:39;;;;;;;87.63;56.33;;;8.70;97.10;;;;;;5036200;28;20246;-65
2023/01/01 07:16:07;;;;;;;91.53;55.87;;;8.70;97.10;;;;;;5049474;28;20201;-65
2023/01/01 07:18:39;;;;;;;92.83;55.23;;;8.70;97.10;;;;;;5038168;28;20207;-65
2023/01/01 07:21:31;;;;;;;82.93;54.00;;;8.60;97.10;;;;;;5047891;28;20196;-65
2023/01/01 07:24:04;;;;;;;94.27;55.57;;;8.70;97.10;;;;;;5036436;28;20295;-65
2023/01/01 07:26:32;;;;;;;83.33;53.27;;;8.70;97.10;;;;;;5039688;28;20694;-65
2023/01/01 07:29:00;;;;;;;87.10;54.43;;;8.60;97.10;;;;;;5037079;28;20210;-65
2023/01/01 07:31:36;;;;;;;85.63;54.70;;;8.70;97.10;;;;;;5038906;28;20661;-65
2023/01/01 07:34:05;;;;;;;86.60;52.27;;;8.70;97.10;;;;;;5035661;28;20205;-65
2023/01/01 07:36:32;;;;;;;82.30;51.03;;;8.70;97.10;;;;;;5035497;28;20196;-65
2023/01/01 07:38:59;;;;;;;91.77;50.60;;;8.70;97.10;;;;;;5037675;28;20485;-65
2023/01/01 07:41:26;;;;;;;80.50;50.97;;;8.80;97.20;;;;;;5036918;28;20196;-65
2023/01/01 07:43:53;;;;;;;85.43;50.13;;;8.80;97.20;;;;;;5035488;28;20532;-65
2023/01/01 07:46:20;;;;;;;83.13;49.33;;;8.90;97.20;;;;;;5032633;28;20249;-65
2023/01/01 07:48:48;;;;;;;76.57;48.00;;;8.90;97.20;;;;;;5034248;28;20200;-65
2023/01/01 07:51:15;;;;;;;84.03;48.77;;;9.00;97.20;;;;;;5035796;28;20338;-65
2023/01/01 07:53:42;;;;;;;76.47;45.90;;;9.00;97.10;;;;;;5034702;28;20204;-65
2023/01/01 07:56:09;;;;;;;71.60;44.90;;;9.10;97.10;;;;;;5039460;28;20640;-65
2023/01/01 07:58:40;;;;;;;70.43;44.03;;;9.20;97.10;;;;;;5035033;28;20200;-65
2023/01/01 08:01:10;;;;;;;75.67;44.77;;;9.20;97.10;;;;;;5042440;28;20209;-65
2023/01/01 08:03:38;;;;;;;70.30;42.97;;;9.30;97.00;;;;;;5034491;28;20208;-65
2023/01/01 08:06:10;;;;;;;66.17;42.77;;;9.40;97.00;;;;;;5034543;28;20632;-65
2023/01/01 08:08:37;;;;;;;66.50;42.07;;;9.40;96.90;;;;;;5037810;28;20292;-65
2023/01/01 08:11:04;;;;;;;68.27;42.17;;;9.50;96.90;;;;;;5030241;28;20221;-65
2023/01/01 08:13:32;;;;;;;69.67;40.93;;;9.60;96.80;;;;;;5035146;28;20245;-65
2023/01/01 08:15:59;;;;;;;66.47;39.53;;;9.70;96.70;;;;;;5037250;28;20197;-65
2023/01/01 08:18:26;;;;;;;73.33;40.07;;;9.80;96.70;;;;;;5030824;28;20207;-65
2023/01/01 08:20:54;;;;;;;64.67;38.90;;;9.90;96.60;;;;;;5035875;28;20211;-65
2023/01/01 08:23:21;;;;;;;64.00;41.13;;;9.90;96.60;;;;;;5036057;28;20205;-65
2023/01/01 08:25:48;;;;;;;61.80;40.10;;;10.00;96.50;;;;;;5037711;28;20193;-65
2023/01/01 08:28:15;;;;;;;62.40;39.63;;;10.10;96.40;;;;;;5036544;28;20221;-65
2023/01/01 08:30:42;;;;;;;58.47;38.63;;;10.10;96.30;;;;;;5037889;28;20223;-65
2023/01/01 08:33:10;;;;;;;65.63;40.23;;;10.20;96.30;;;;;;5036557;28;20195;-65
2023/01/01 08:35:40;;;;;;;64.07;39.63;;;10.20;96.30;;;;;;5034664;28;20284;-65
2023/01/01 08:38:10;;;;;;;64.37;41.20;;;10.30;96.30;;;;;;5036306;28;20706;-65
2023/01/01 08:40:38;;;;;;;60.63;38.20;;;10.30;96.20;;;;;;5034235;28;20542;-65
2023/01/01 08:43:05;;;;;;;57.07;38.03;;;10.30;96.10;;;;;;5033733;28;20262;-65
2023/01/01 08:45:32;;;;;;;65.63;39.00;;;10.30;96.10;;;;;;5035722;28;20200;-65
2023/01/01 08:47:59;;;;;;;60.63;38.73;;;10.30;96.10;;;;;;5035675;28;20264;-65
2023/01/01 08:50:26;;;;;;;59.00;39.03;;;10.30;96.10;;;;;;5033195;28;20280;-65
2023/01/01 08:52:54;;;;;;;58.07;36.80;;;10.30;96.10;;;;;;5033397;28;20292;-65
2023/01/01 08:55:21;;;;;;;63.10;38.27;;;10.30;96.10;;;;;;5034204;28;20218;-65
2023/01/01 08:57:48;;;;;;;63.73;39.70;;;10.30;96.10;;;;;;5034841;28;20197;-65
2023/01/01 09:00:16;;;;;;;63.50;38.80;;;10.30;96.10;;;;;;5034139;28;20275;-65
2023/01/01 09:02:43;;;;;;;61.37;38.37;;;10.30;96.10;;;;;;5030354;28;20257;-65
2023/01/01 09:05:11;;;;;;;64.07;39.43;;;10.40;96.20;;;;;;5034711;28;20220;-65
2023/01/01 09:07:38;;;;;;;55.73;36.80;;;10.40;96.20;;;;;;5033711;28;20210;-65
2023/01/01 09:10:05;;;;;;;59.10;38.67;;;10.50;96.20;;;;;;5037766;28;20222;-65
2023/01/01 09:12:32;;;;;;;56.20;37.30;;;10.60;96.10;;;;;;5035301;28;20278;-65
2023/01/01 09:14:59;;;;;;;58.63;36.63;;;10.70;96.10;;;;;;5036025;28;20231;-65
2023/01/01 09:17:26;;;;;;;54.47;36.30;;;10.70;96.10;;;;;;5030602;28;20237;-65
2023/01/01 09:19:54;;;;;;;55.50;35.17;;;10.80;96.10;;;;;;5032458;28;20622;-65
2023/01/01 09:22:21;;;;;;;53.77;35.90;;;11.00;96.10;;;;;;5030037;28;20227;-65
2023/01/01 09:24:48;;;;;;;58.20;36.90;;;11.00;95.90;;;;;;5033851;28;20260;-65
2023/01/01 09:27:15;;;;;;;56.23;36.27;;;11.10;95.90;;;;;;5035969;28;20207;-65
2023/01/01 09:29:42;;;;;;;52.40;34.87;;;11.20;95.80;;;;;;5036173;28;20198;-65
2023/01/01 09:32:09;;;;;;;54.43;34.43;;;11.30;95.80;;;;;;5033135;28;20212;-65
2023/01/01 09:34:36;;;;;;;50.40;34.13;;;11.40;95.70;;;;;;5035521;28;20299;-65
2023/01/01 09:37:03;;;;;;;51.00;33.07;;;11.50;95.60;;;;;;5034621;28;20213;-65
2023/01/01 09:39:30;;;;;;;49.87;33.17;;;11.50;95.50;;;;;;5033564;28;20207;-65
2023/01/01 09:42:49;;;;;;;48.73;32.47;;;11.60;95.50;;;;;;5033232;28;20209;-65
2023/01/01 09:45:26;;;;;;;54.67;33.20;;;11.70;95.40;;;;;;5027962;28;20221;-65
2023/01/01 09:48:02;;;;;;;53.77;34.77;;;11.80;95.30;;;;;;5032217;28;20539;-65
2023/01/01 09:50:41;;;;;;;47.97;32.13;;;11.90;95.20;;;;;;5031289;28;20227;-65
2023/01/01 09:53:46;;;;;;;53.37;32.43;;;11.90;95.20;;;;;;5031563;28;20202;-65
2023/01/01 09:56:19;;;;;;;49.83;34.43;;;11.90;95.10;;;;;;5033828;28;20214;-65
2023/01/01 09:58:46;;;;;;;51.00;34.33;;;12.00;95.10;;;;;;5032883;28;20206;-65
2023/01/01 10:01:35;;;;;;;48.07;33.43;;;12.10;95.10;;;;;;5033751;28;20520;-65
2023/01/01 10:04:33;;;;;;;51.67;35.23;;;12.10;95.00;;;;;;5035332;28;20212;-65
2023/01/01 10:07:34;;;;;;;46.07;31.93;;;12.20;95.00;;;;;;5032251;28;20206;-65
2023/01/01 10:10:19;;;;;;;45.90;31.63;;;12.30;94.90;;;;;;5032726;28;20258;-65
2023/01/01 10:13:12;;;;;;;45.23;31.43;;;12.40;94.80;;;;;;5031839;28;20199;-65
2023/01/01 10:15:51;;;;;;;43.93;31.20;;;12.50;94.70;;;;;;5033438;28;20579;-65
2023/01/01 10:18:24;;;;;;;46.33;31.37;;;12.60;94.60;;;;;;5034976;28;20194;-65
2023/01/01 10:21:20;;;;;;;45.00;30.50;;;12.70;94.40;;;;;;5035662;28;20300;-65
2023/01/01 10:24:24;;;;;;;45.70;32.17;;;12.70;94.40;;;;;;5030415;28;20199;-65
2023/01/01 10:26:54;;;;;;;47.87;32.13;;;12.80;94.40;;;;;;5033186;28;20217;-65
2023/01/01 10:29:37;;;;;;;46.40;31.17;;;12.80;94.40;;;;;;5031696;28;20204;-65
2023/01/01 10:32:29;;;;;;;47.83;31.93;;;12.80;94.30;;;;;;5033434;28;20201;-65
2023/01/01 10:34:56;;;;;;;42.50;30.00;;;12.90;94.30;;;;;;5031594;28;20686;-65
2023/01/01 10:37:27;;;;;;;43.33;31.03;;;12.90;94.30;;;;;;5037838;28;20236;-65
2023/01/01 10:39:54;;;;;;;43.53;30.87;;;12.90;94.40;;;;;;5030677;28;20617;-65
2023/01/01 10:42:21;;;;;;;47.60;32.07;;;12.90;94.30;;;;;;5031559;28;20199;-65
2023/01/01 10:44:52;;;;;;;44.67;31.43;;;12.90;94.30;;;;;;5040728;28;20198;-65
2023/01/01 10:47:28;;;;;;;49.47;34.67;;;13.00;94.30;;;;;;5044192;28;20198;-65
2023/01/01 10:50:01;;;;;;;51.07;35.53;;;13.00;94.40;;;;;;5035238;28;20206;-65
2023/01/01 10:52:38;;;;;;;49.50;34.63;;;13.00;94.40;;;;;;5037066;28;20202;-65
2023/01/01 10:55:19;;;;;;;52.20;36.20;;;13.10;94.30;;;;;;5031249;28;20298;-65
2023/01/01 10:57:46;;;;;;;53.77;37.40;;;13.10;94.30;;;;;;5043867;28;20213;-65
2023/01/01 11:00:22;;;;;;;45.20;35.20;;;13.20;94.20;;;;;;5037931;28;20206;-65
2023/01/01 11:03:25;;;;;;;52.00;36.53;;;13.20;94.10;;;;;;5037607;28;20216;-65
2023/01/01 11:06:03;;;;;;;54.13;38.63;;;13.20;94.10;;;;;;5041139;28;20220;-65
2023/01/01 11:08:33;;;;;;;54.57;37.40;;;13.30;94.10;;;;;;5043415;28;20221;-65
2023/01/01 11:11:02;;;;;;;51.20;36.70;;;13.40;94.10;;;;;;5035242;28;20251;-65
2023/01/01 11:13:30;;;;;;;55.90;37.97;;;13.50;94.10;;;;;;5041419;28;20624;-65
2023/01/01 11:15:57;;;;;;;49.60;37.63;;;13.60;94.10;;;;;;5038786;28;20268;-65
2023/01/01 11:18:34;;;;;;;53.83;37.23;;;13.60;94.00;;;;;;5037492;28;20198;-65
2023/01/01 11:21:04;;;;;;;51.40;35.50;;;13.70;93.90;;;;;;5031625;28;20206;-65
2023/01/01 11:23:38;;;;;;;48.57;35.23;;;13.80;93.80;;;;;;5038605;28;20206;-65
2023/01/01 11:26:18;;;;;;;51.73;35.93;;;13.80;93.50;;;;;;5031614;28;20262;-65
2023/01/01 11:28:59;;;;;;;48.67;33.93;;;13.90;93.50;;;;;;5034075;28;20206;-65
2023/01/01 11:31:38;;;;;;;52.47;35.17;;;13.90;93.40;;;;;;5035518;28;20625;-65
2023/01/01 11:34:34;;;;;;;48.13;34.57;;;14.00;93.40;;;;;;5033065;28;20202;-65
2023/01/01 11:37:13;;;;;;;48.17;35.73;;;14.00;93.20;;;;;;5040397;28;20198;-65
2023/01/01 11:39:47;;;;;;;46.50;32.97;;;14.00;93.20;;;;;;5036667;28;20646;-65
2023/01/01 11:42:32;;;;;;;50.47;35.83;;;14.00;93.20;;;;;;5033883;28;20202;-65
2023/01/01 11:45:01;;;;;;;51.73;36.17;;;14.10;93.10;;;;;;5037984;28;20203;-65
2023/01/01 11:47:42;;;;;;;48.33;34.13;;;14.10;93.10;;;;;;5036223;28;20191;-65
2023/01/01 11:50:27;;;;;;;44.80;34.37;;;14.10;93.10;;;;;;5051419;28;20261;-65
2023/01/01 11:52:57;;;;;;;50.83;36.30;;;14.10;93.10;;;;;;5035771;28;20191;-65
2023/01/01 11:55:30;;;;;;;50.53;35.17;;;14.20;93.10;;;;;;5040371;28;20195;-65
2023/01/01 11:58:27;;;;;;;49.30;34.57;;;14.20;93.00;;;;;;5038664;28;20234;-65
2023/01/01 12:00:56;;;;;;;43.93;31.80;;;14.30;92.90;;;;;;5036775;28;20236;-65
2023/01/01 12:03:39;;;;;;;44.13;32.50;;;14.40;92.90;;;;;;5033628;28;20207;-65
2023/01/01 12:06:18;;;;;;;45.77;32.90;;;14.40;92.80;;;;;;5037751;28;20213;-65
2023/01/01 12:08:55;;;;;;;42.93;31.60;;;14.40;92.60;;;;;;5036744;28;20638;-65
2023/01/01 12:11:46;;;;;;;48.33;32.77;;;14.50;92.60;;;;;;5035933;28;20225;-65
2023/01/01 12:14:33;;;;;;;44.40;32.47;;;14.50;92.50;;;;;;5035662;28;20714;-65
2023/01/01 12:17:15;;;;;;;48.20;33.67;;;14.50;92.50;;;;;;5036278;28;20199;-65
2023/01/01 12:20:07;;;;;;;45.43;33.53;;;14.50;92.40;;;;;;5031015;28;20199;-65
2023/01/01 12:22:34;;;;;;;46.57;34.03;;;14.40;92.40;;;;;;5035294;28;20604;-65
2023/01/01 12:25:04;;;;;;;46.87;33.40;;;14.40;92.40;;;;;;5038587;28;20236;-65
2023/01/01 12:27:36;;;;;;;45.60;31.23;;;14.30;92.40;;;;;;5038361;28;20206;-65
2023/01/01 12:30:15;;;;;;;45.40;31.60;;;14.30;92.50;;;;;;5041278;28;20202;-65
2023/01/01 12:32:55;;;;;;;50.33;33.00;;;14.20;92.50;;;;;;5032317;28;20899;-65
2023/01/01 12:35:39;;;;;;;39.80;28.90;;;14.20;92.60;;;;;;5037956;28;20203;-65
2023/01/01 12:38:35;;;;;;;39.77;27.07;;;14.20;92.70;;;;;;5036274;28;20264;-65
2023/01/01 12:41:12;;;;;;;38.70;27.23;;;14.10;92.70;;;;;;5037797;28;20649;-65
2023/01/01 12:44:06;;;;;;;39.13;27.80;;;14.10;92.30;;;;;;5037834;28;20221;-65
2023/01/01 12:46:41;;;;;;;37.00;25.50;;;14.00;92.30;;;;;;5037455;28;20206;-65
2023/01/01 12:49:25;;;;;;;35.40;24.83;;;14.00;92.50;;;;;;5031419;28;20210;-65
2023/01/01 12:52:23;;;;;;;32.80;21.93;;;14.00;92.60;;;;;;5034561;28;20217;-65
2023/01/01 12:54:50;;;;;;;21.90;16.97;;;13.90;92.70;;;;;;5038263;28;20526;-65